Bemis, Tennessee
Current Conditions -  °F | °C
As of 2:25 AM on Thursday 27 Nov 2014 (Local Time) from KMKL Reporting Station
Overcast Overcast  
Wind Chill: 34°   Ceiling: 2400
Heat Index: 39°   Visibility: 10mi
Dew Point: 34°   Wind: 8mph
Humidity: 81%   Direction: 300°WNW
Pressure: 30.24"   Gusts: NA
Location:  35.5761°N, 88.8215°W
Report Text: KMKL 270825Z AUTO 30007KT 10SM BKN024 BKN031 OVC038 04/01 A3024 RMK AO2
Loading
Personal Weather Stations






























Interactive Weather Map New forecast layout! Learn more

10-Day Weather Forecast

Advertisements
Track Severe Weather on mobile